createdAt,value
2017-09-05T00:01:32.748Z,11.80
2017-09-05T00:06:35.986Z,8.30
2017-09-05T00:11:40.060Z,9.77
2017-09-05T00:16:43.262Z,12.77
2017-09-05T00:37:43.692Z,11.13
2017-09-05T00:42:46.895Z,9.20
2017-09-05T00:47:50.092Z,16.23
2017-09-05T00:52:53.292Z,9.83
2017-09-05T00:57:56.514Z,14.63
2017-09-05T01:02:59.734Z,11.10
2017-09-05T01:08:02.937Z,11.37
2017-09-05T01:13:06.137Z,9.87
2017-09-05T01:18:09.343Z,14.43
2017-09-05T01:23:12.550Z,11.83
2017-09-05T01:28:15.761Z,10.87
2017-09-05T01:33:18.973Z,14.10
2017-09-05T01:38:22.182Z,9.40
2017-09-05T01:43:25.492Z,13.40
2017-09-05T01:48:28.691Z,8.03
2017-09-05T01:53:31.897Z,8.80
2017-09-05T01:58:35.112Z,8.43
2017-09-05T02:03:38.336Z,8.87
2017-09-05T02:08:41.539Z,15.63
2017-09-05T02:13:44.760Z,13.90
2017-09-05T02:18:47.971Z,13.77
2017-09-05T02:23:51.187Z,17.00
2017-09-05T02:28:54.408Z,12.63
2017-09-05T02:33:57.626Z,10.53
2017-09-05T02:39:00.851Z,10.97
2017-09-05T02:44:04.079Z,12.20
2017-09-05T02:49:07.289Z,14.37
2017-09-05T02:54:10.515Z,17.47
2017-09-05T02:59:13.688Z,15.20
2017-09-05T03:04:16.908Z,14.87
2017-09-05T03:09:20.087Z,15.30
2017-09-05T03:14:23.333Z,18.23
2017-09-05T03:19:26.534Z,16.17
2017-09-05T03:24:29.753Z,15.83
2017-09-05T03:29:32.968Z,18.20
2017-09-05T03:34:36.183Z,21.37
2017-09-05T03:39:39.407Z,19.03
2017-09-05T03:44:42.626Z,14.40
2017-09-05T03:49:46.045Z,14.07
2017-09-05T03:54:49.271Z,18.20
2017-09-05T03:59:52.494Z,18.47
2017-09-05T04:04:55.703Z,19.43
2017-09-05T04:09:58.910Z,17.20
2017-09-05T04:15:02.110Z,20.63
2017-09-05T04:20:05.424Z,15.60
2017-09-05T04:25:08.627Z,15.10
2017-09-05T04:30:11.845Z,17.73
2017-09-05T04:35:15.084Z,18.30
2017-09-05T04:40:18.300Z,16.73
2017-09-05T04:45:21.511Z,18.37
2017-09-05T04:50:24.714Z,22.63
2017-09-05T04:55:27.981Z,26.07
2017-09-05T05:00:31.196Z,21.97
2017-09-05T05:05:34.420Z,17.47
2017-09-05T05:10:37.673Z,20.87
2017-09-05T05:15:40.900Z,22.55
2017-09-05T05:20:44.118Z,24.63
2017-09-05T05:25:47.340Z,32.00
2017-09-05T05:30:50.531Z,27.17
2017-09-05T05:35:53.769Z,26.80
2017-09-05T05:40:56.986Z,23.20
2017-09-05T05:46:00.327Z,28.43
2017-09-05T05:51:03.539Z,29.80
2017-09-05T05:56:06.798Z,30.53
2017-09-05T06:01:10.000Z,32.13
2017-09-05T06:06:13.254Z,35.97
2017-09-05T06:11:16.466Z,39.07
2017-09-05T06:16:19.707Z,34.57
2017-09-05T06:21:22.892Z,29.77
2017-09-05T06:26:26.139Z,30.40
2017-09-05T06:31:29.364Z,34.73
2017-09-05T06:36:32.600Z,35.57
2017-09-05T06:41:35.832Z,31.93
2017-09-05T06:46:39.035Z,28.00
2017-09-05T06:51:42.243Z,30.10
2017-09-05T06:56:45.440Z,34.20
2017-09-05T07:01:48.621Z,29.10
2017-09-05T07:06:51.856Z,22.50
2017-09-05T07:11:55.048Z,24.70
2017-09-05T07:16:58.281Z,29.43
2017-09-05T07:22:01.581Z,23.73
2017-09-05T07:27:04.792Z,21.80
2017-09-05T07:32:08.037Z,19.90
2017-09-05T07:37:11.310Z,21.13
2017-09-05T07:42:14.534Z,21.07
2017-09-05T07:47:17.774Z,17.67
2017-09-05T07:52:21.009Z,19.23
2017-09-05T07:57:24.224Z,18.27
2017-09-05T08:02:27.433Z,19.53
2017-09-05T08:07:30.641Z,17.70
2017-09-05T08:12:33.853Z,17.60
2017-09-05T08:17:37.089Z,20.55
2017-09-05T08:22:40.314Z,19.70
2017-09-05T08:27:43.603Z,15.67
2017-09-05T08:32:46.838Z,15.33
2017-09-05T08:37:50.093Z,17.12
2017-09-05T08:42:53.318Z,21.60
2017-09-05T08:47:56.631Z,17.20
2017-09-05T08:52:59.853Z,17.80
2017-09-05T08:58:03.120Z,21.30
2017-09-05T09:03:06.475Z,16.87
2017-09-05T09:08:09.792Z,17.20
2017-09-05T09:13:13.020Z,16.47
2017-09-05T09:18:16.246Z,20.98
2017-09-05T09:23:19.454Z,16.37
2017-09-05T09:28:22.625Z,18.27
2017-09-05T09:33:25.893Z,14.20
2017-09-05T09:38:29.112Z,21.17
2017-09-05T09:43:32.344Z,17.27
2017-09-05T09:48:35.557Z,26.33
2017-09-05T09:53:38.757Z,14.43
2017-09-05T09:58:42.019Z,17.50
2017-09-05T10:03:45.238Z,15.13
2017-09-05T10:08:48.585Z,15.63
2017-09-05T10:13:51.845Z,13.50
2017-09-05T10:18:55.066Z,19.90
2017-09-05T10:23:58.300Z,14.87
2017-09-05T10:29:01.522Z,18.80
2017-09-05T10:34:04.759Z,14.87
2017-09-05T10:39:07.984Z,12.43
2017-09-05T10:44:11.210Z,18.37
2017-09-05T10:49:14.480Z,13.23
2017-09-05T10:54:17.704Z,9.53
2017-09-05T10:59:20.959Z,8.57
2017-09-05T11:04:25.182Z,11.50
2017-09-05T11:09:28.416Z,12.40
2017-09-05T11:14:31.839Z,10.27
2017-09-05T11:19:35.045Z,9.47
2017-09-05T11:24:38.422Z,13.63
2017-09-05T11:29:41.689Z,10.60
2017-09-05T11:34:44.937Z,10.13
2017-09-05T11:39:48.157Z,9.37
2017-09-05T11:44:51.395Z,7.87
2017-09-05T11:49:54.581Z,7.27
2017-09-05T11:54:57.829Z,4.80
2017-09-05T12:00:01.036Z,9.37
2017-09-05T12:05:04.249Z,4.50
2017-09-05T12:10:07.474Z,7.37
2017-09-05T12:15:10.666Z,10.70
2017-09-05T12:20:14.141Z,6.30
2017-09-05T12:25:17.342Z,8.30
2017-09-05T12:30:20.730Z,16.73
2017-09-05T12:35:23.918Z,8.40
2017-09-05T12:40:27.114Z,6.90
2017-09-05T12:45:30.264Z,10.40
2017-09-05T12:50:33.600Z,7.27
2017-09-05T12:55:36.836Z,15.23
2017-09-05T13:00:40.013Z,9.30
2017-09-05T13:05:43.424Z,5.13
2017-09-05T13:10:46.634Z,7.47
2017-09-05T13:15:49.859Z,10.43
2017-09-05T13:20:53.119Z,7.30
2017-09-05T13:25:56.311Z,7.03
2017-09-05T13:30:59.785Z,5.00
2017-09-05T13:36:02.999Z,9.30
2017-09-05T13:41:06.184Z,6.40
2017-09-05T13:46:09.400Z,7.17
2017-09-05T13:51:12.599Z,6.87
2017-09-05T13:56:15.801Z,6.80
2017-09-05T14:01:19.010Z,12.07
2017-09-05T14:06:22.218Z,8.00
2017-09-05T14:11:25.435Z,7.00
2017-09-05T14:16:28.635Z,5.40
2017-09-05T14:21:31.886Z,8.27
2017-09-05T14:26:35.222Z,7.10
2017-09-05T14:31:38.454Z,6.23
2017-09-05T14:36:41.672Z,9.30
2017-09-05T14:41:44.903Z,5.97
2017-09-05T14:46:48.107Z,5.57
2017-09-05T14:51:51.313Z,7.73
2017-09-05T14:56:54.535Z,6.57
2017-09-05T15:01:57.730Z,6.50
2017-09-05T15:07:00.996Z,10.05
2017-09-05T15:12:04.216Z,7.67
2017-09-05T15:17:07.420Z,6.30
2017-09-05T15:22:10.715Z,8.37
2017-09-05T15:27:13.952Z,7.13
2017-09-05T15:32:17.137Z,11.20
2017-09-05T15:37:20.318Z,6.63
2017-09-05T15:42:23.535Z,8.83
2017-09-05T15:47:26.731Z,7.70
2017-09-05T15:52:29.938Z,9.53
2017-09-05T15:57:33.193Z,6.53
2017-09-05T16:02:36.446Z,6.33
2017-09-05T16:07:39.706Z,5.40
2017-09-05T16:12:42.931Z,7.33
2017-09-05T16:17:46.136Z,5.83
2017-09-05T16:22:49.367Z,11.70
2017-09-05T16:27:52.596Z,7.30
2017-09-05T16:32:55.863Z,5.73
2017-09-05T16:37:59.074Z,6.40
2017-09-05T16:43:02.311Z,5.63
2017-09-05T16:48:05.533Z,5.17
2017-09-05T16:53:08.744Z,9.73
2017-09-05T17:03:41.679Z,8.07
2017-09-05T17:08:44.902Z,6.07
2017-09-05T17:13:48.171Z,7.80
2017-09-05T17:18:51.486Z,10.33
2017-09-05T17:23:54.686Z,5.50
2017-09-05T17:28:57.893Z,6.20
2017-09-05T17:34:01.088Z,4.53
2017-09-05T17:39:04.266Z,10.00
2017-09-05T17:44:07.483Z,3.90
2017-09-05T17:49:10.810Z,4.40
2017-09-05T17:54:14.026Z,5.80
2017-09-05T17:59:17.262Z,39.47
2017-09-05T18:04:20.500Z,8.70
2017-09-05T18:09:23.707Z,10.03
2017-09-05T18:14:26.905Z,5.60
2017-09-05T18:19:30.132Z,11.70
2017-09-05T18:24:33.348Z,8.10
2017-09-05T18:29:36.680Z,7.73
2017-09-05T18:34:39.906Z,7.47
2017-09-05T18:39:43.201Z,10.63
2017-09-05T18:44:46.426Z,7.77
2017-09-05T18:49:49.667Z,6.50
2017-09-05T18:54:52.987Z,9.47
2017-09-05T18:59:56.501Z,5.23
2017-09-05T19:05:00.013Z,10.02
2017-09-05T19:10:03.427Z,9.77
2017-09-05T19:15:06.826Z,20.87
2017-09-05T19:20:10.120Z,4.63
2017-09-05T19:25:13.352Z,8.53
2017-09-05T19:30:16.663Z,5.23
2017-09-05T19:35:19.882Z,6.57
2017-09-05T19:40:23.130Z,5.17
2017-09-05T19:45:26.357Z,8.07
2017-09-05T19:50:29.582Z,8.50
2017-09-05T19:55:32.800Z,6.63
2017-09-05T20:00:36.008Z,7.40
2017-09-05T20:05:39.304Z,7.80
2017-09-05T20:10:42.519Z,5.20
2017-09-05T20:15:45.732Z,9.60
2017-09-05T20:20:48.975Z,6.80
2017-09-05T20:25:52.227Z,5.30
2017-09-05T20:30:55.495Z,3.93
2017-09-05T20:35:58.754Z,11.40
2017-09-05T20:41:01.916Z,6.00
2017-09-05T20:46:05.167Z,9.60
2017-09-05T20:51:08.428Z,4.10
2017-09-05T20:56:11.656Z,5.10
2017-09-05T21:01:14.885Z,5.67
2017-09-05T21:06:18.146Z,4.90
2017-09-05T21:11:21.365Z,6.80
2017-09-05T21:16:25.450Z,9.00
2017-09-05T21:21:28.902Z,8.57
2017-09-05T21:26:32.200Z,5.97
2017-09-05T21:31:35.409Z,7.10
2017-09-05T21:36:38.683Z,9.10
2017-09-05T21:41:41.918Z,7.23
2017-09-05T21:46:45.134Z,4.03
2017-09-05T21:51:48.336Z,7.10
2017-09-05T21:56:51.579Z,5.77
2017-09-05T22:01:54.799Z,6.47
2017-09-05T22:06:58.041Z,6.80
2017-09-05T22:12:01.267Z,7.83
2017-09-05T22:17:04.471Z,5.97
2017-09-05T22:22:07.673Z,6.10
2017-09-05T22:27:16.490Z,8.93
2017-09-05T22:32:19.714Z,5.13
2017-09-05T22:37:22.947Z,4.30
2017-09-05T22:42:26.137Z,4.90
2017-09-05T22:47:29.385Z,6.60
2017-09-05T22:52:32.615Z,5.80
2017-09-05T22:57:35.825Z,5.30
2017-09-05T23:02:39.042Z,8.80
2017-09-05T23:07:42.206Z,7.03
2017-09-05T23:12:45.414Z,8.87
2017-09-05T23:17:48.597Z,6.97
2017-09-05T23:22:51.834Z,6.63
2017-09-05T23:27:55.022Z,7.60
2017-09-05T23:32:58.235Z,6.97
2017-09-05T23:38:01.438Z,12.15
2017-09-05T23:43:04.642Z,8.93
2017-09-05T23:48:07.893Z,10.13
2017-09-05T23:53:11.142Z,9.23
2017-09-05T23:58:14.339Z,10.53
